EDDH/HAM METAR and TAF weather

Enter ICAO airport designator
Station Type Date Time Source
EDDH METAR 2022/05/25 01:20 UTC NOAA

EDDH 250120Z AUTO 23005KT 9999 BKN036 10/09 Q1011 NOSIG


Station Type Date Time Source
EDDH Decoded METAR 2022/05/25 01:20 UTC NOAA

Hamburg-Fuhlsbuettel, Germany (EDDH) 53-38N 010-00E 15M
May 24, 2022 - 09:20 PM EDT / 2022.05.25 0120 UTC
Wind: from the SW (230 degrees) at 6 MPH (5 KT):0
Visibility: greater than 7 mile(s):0
Sky conditions: mostly cloudy
Temperature: 50 F (10 C)
Dew Point: 48 F (9 C)
Relative Humidity: 93%
Pressure (altimeter): 29.85 in. Hg (1011 hPa)
ob: EDDH 250120Z AUTO 23005KT 9999 BKN036 10/09 Q1011 NOSIG
cycle: 1

Station Type Date Time Source
EDDH TAF 2022/05/24 18:56 UTC NOAA

TAF EDDH 241700Z 2418/2524 23012KT 9999 BKN025 PROB30
TEMPO 2418/2419 24015G25KT SHRA BKN020CB
BECMG 2418/2420 25004KT PROB30
TEMPO 2504/2507 BKN009
BECMG 2506/2508 24010KT PROB30
TEMPO 2508/2517 25015G25KT SHRA BKN020CB

Example: see airport list